sensor_id;sensor_type;location;lat;lon;timestamp;P1;durP1;ratioP1;P2;durP2;ratioP2
48026;SDS011;50714;49.208;5.364;2023-02-28T00:06:57;1.15;;;1.02;;
48026;SDS011;50714;49.208;5.364;2023-02-28T00:16:57;8.18;;;5.82;;
48026;SDS011;50714;49.208;5.364;2023-02-28T00:26:57;8.43;;;6.38;;
48026;SDS011;50714;49.208;5.364;2023-02-28T00:36:58;4.55;;;3.10;;
48026;SDS011;50714;49.208;5.364;2023-02-28T00:46:58;2.60;;;1.35;;
48026;SDS011;50714;49.208;5.364;2023-02-28T00:57:00;4.03;;;2.83;;
48026;SDS011;50714;49.208;5.364;2023-02-28T01:07:00;1.90;;;1.50;;
48026;SDS011;50714;49.208;5.364;2023-02-28T01:17:00;1.90;;;1.38;;
48026;SDS011;50714;49.208;5.364;2023-02-28T01:27:01;1.83;;;1.30;;
48026;SDS011;50714;49.208;5.364;2023-02-28T01:37:02;1.67;;;1.20;;
48026;SDS011;50714;49.208;5.364;2023-02-28T01:47:03;1.83;;;1.13;;
48026;SDS011;50714;49.208;5.364;2023-02-28T01:57:04;1.85;;;1.30;;
48026;SDS011;50714;49.208;5.364;2023-02-28T02:07:10;1.42;;;1.27;;
48026;SDS011;50714;49.208;5.364;2023-02-28T02:39:19;1.10;;;1.00;;
48026;SDS011;50714;49.208;5.364;2023-02-28T02:49:00;1.23;;;1.05;;
48026;SDS011;50714;49.208;5.364;2023-02-28T02:59:05;1.52;;;1.30;;
48026;SDS011;50714;49.208;5.364;2023-02-28T03:09:09;1.60;;;1.30;;
48026;SDS011;50714;49.208;5.364;2023-02-28T03:29:23;2.05;;;1.30;;
48026;SDS011;50714;49.208;5.364;2023-02-28T03:39:30;1.48;;;1.38;;
48026;SDS011;50714;49.208;5.364;2023-02-28T03:49:42;2.53;;;1.60;;
48026;SDS011;50714;49.208;5.364;2023-02-28T03:59:48;1.92;;;1.40;;
48026;SDS011;50714;49.208;5.364;2023-02-28T04:09:56;1.58;;;1.48;;
48026;SDS011;50714;49.208;5.364;2023-02-28T04:19:57;2.15;;;1.80;;
48026;SDS011;50714;49.208;5.364;2023-02-28T04:29:57;1.15;;;1.05;;
48026;SDS011;50714;49.208;5.364;2023-02-28T04:39:58;2.03;;;1.58;;
48026;SDS011;50714;49.208;5.364;2023-02-28T04:49:58;2.33;;;1.60;;
48026;SDS011;50714;49.208;5.364;2023-02-28T04:59:58;3.55;;;2.35;;
48026;SDS011;50714;49.208;5.364;2023-02-28T05:09:59;3.08;;;2.20;;
48026;SDS011;50714;49.208;5.364;2023-02-28T05:19:59;3.03;;;2.20;;
48026;SDS011;50714;49.208;5.364;2023-02-28T05:30:00;3.63;;;2.55;;
48026;SDS011;50714;49.208;5.364;2023-02-28T05:40:03;2.47;;;2.03;;
48026;SDS011;50714;49.208;5.364;2023-02-28T05:50:11;2.95;;;2.05;;
48026;SDS011;50714;49.208;5.364;2023-02-28T06:00:12;2.78;;;2.30;;
48026;SDS011;50714;49.208;5.364;2023-02-28T06:10:15;2.65;;;2.10;;
48026;SDS011;50714;49.208;5.364;2023-02-28T06:20:15;2.60;;;2.40;;
48026;SDS011;50714;49.208;5.364;2023-02-28T06:30:16;3.03;;;2.60;;
48026;SDS011;50714;49.208;5.364;2023-02-28T06:40:17;3.53;;;3.17;;
48026;SDS011;50714;49.208;5.364;2023-02-28T06:50:17;5.07;;;3.60;;
48026;SDS011;50714;49.208;5.364;2023-02-28T07:00:19;6.72;;;4.93;;
48026;SDS011;50714;49.208;5.364;2023-02-28T07:10:20;5.38;;;4.07;;
48026;SDS011;50714;49.208;5.364;2023-02-28T07:20:20;5.25;;;3.70;;
48026;SDS011;50714;49.208;5.364;2023-02-28T07:30:21;4.82;;;4.15;;
48026;SDS011;50714;49.208;5.364;2023-02-28T07:40:21;5.63;;;4.50;;
48026;SDS011;50714;49.208;5.364;2023-02-28T07:50:22;4.50;;;3.90;;
48026;SDS011;50714;49.208;5.364;2023-02-28T08:00:22;3.77;;;3.27;;
48026;SDS011;50714;49.208;5.364;2023-02-28T08:10:23;3.27;;;2.93;;
48026;SDS011;50714;49.208;5.364;2023-02-28T08:20:24;4.22;;;3.00;;
48026;SDS011;50714;49.208;5.364;2023-02-28T08:30:25;3.50;;;2.85;;
48026;SDS011;50714;49.208;5.364;2023-02-28T08:40:27;4.88;;;3.00;;
48026;SDS011;50714;49.208;5.364;2023-02-28T08:50:27;3.75;;;2.67;;
48026;SDS011;50714;49.208;5.364;2023-02-28T09:00:27;3.50;;;2.70;;
48026;SDS011;50714;49.208;5.364;2023-02-28T09:10:28;3.45;;;2.90;;
48026;SDS011;50714;49.208;5.364;2023-02-28T09:20:28;7.97;;;5.80;;
48026;SDS011;50714;49.208;5.364;2023-02-28T09:30:29;4.57;;;3.60;;
48026;SDS011;50714;49.208;5.364;2023-02-28T09:40:30;4.50;;;3.20;;
48026;SDS011;50714;49.208;5.364;2023-02-28T10:00:46;6.70;;;3.00;;
48026;SDS011;50714;49.208;5.364;2023-02-28T10:10:58;3.90;;;2.75;;
48026;SDS011;50714;49.208;5.364;2023-02-28T10:21:01;3.88;;;3.10;;
48026;SDS011;50714;49.208;5.364;2023-02-28T10:31:03;4.05;;;2.90;;
48026;SDS011;50714;49.208;5.364;2023-02-28T10:41:04;4.13;;;3.10;;
48026;SDS011;50714;49.208;5.364;2023-02-28T10:51:08;4.50;;;3.20;;
48026;SDS011;50714;49.208;5.364;2023-02-28T11:01:15;3.88;;;2.70;;
48026;SDS011;50714;49.208;5.364;2023-02-28T11:11:18;3.60;;;2.90;;
48026;SDS011;50714;49.208;5.364;2023-02-28T11:21:29;3.45;;;2.70;;
48026;SDS011;50714;49.208;5.364;2023-02-28T11:31:36;4.45;;;3.33;;
48026;SDS011;50714;49.208;5.364;2023-02-28T11:51:59;6.63;;;5.03;;
48026;SDS011;50714;49.208;5.364;2023-02-28T12:32:38;3.38;;;2.70;;
48026;SDS011;50714;49.208;5.364;2023-02-28T12:42:43;3.22;;;2.50;;
48026;SDS011;50714;49.208;5.364;2023-02-28T13:13:24;4.55;;;3.50;;
48026;SDS011;50714;49.208;5.364;2023-02-28T13:54:21;4.13;;;3.22;;
48026;SDS011;50714;49.208;5.364;2023-02-28T14:04:39;3.15;;;2.85;;
48026;SDS011;50714;49.208;5.364;2023-02-28T14:15:00;5.72;;;4.80;;
48026;SDS011;50714;49.208;5.364;2023-02-28T14:46:00;5.90;;;4.60;;
48026;SDS011;50714;49.208;5.364;2023-02-28T14:56:03;5.63;;;4.50;;
48026;SDS011;50714;49.208;5.364;2023-02-28T15:16:48;5.00;;;4.45;;
48026;SDS011;50714;49.208;5.364;2023-02-28T15:26:38;5.00;;;4.35;;
48026;SDS011;50714;49.208;5.364;2023-02-28T15:36:41;4.70;;;4.18;;
48026;SDS011;50714;49.208;5.364;2023-02-28T15:46:43;6.55;;;5.13;;
48026;SDS011;50714;49.208;5.364;2023-02-28T15:56:54;20.40;;;13.32;;
48026;SDS011;50714;49.208;5.364;2023-02-28T16:17:19;17.95;;;12.25;;
48026;SDS011;50714;49.208;5.364;2023-02-28T16:27:24;12.95;;;8.48;;
48026;SDS011;50714;49.208;5.364;2023-02-28T16:37:30;7.80;;;5.72;;
48026;SDS011;50714;49.208;5.364;2023-02-28T16:47:30;6.57;;;4.95;;
48026;SDS011;50714;49.208;5.364;2023-02-28T16:57:32;5.65;;;4.13;;
48026;SDS011;50714;49.208;5.364;2023-02-28T17:07:33;4.68;;;4.18;;
48026;SDS011;50714;49.208;5.364;2023-02-28T17:17:33;5.03;;;3.97;;
48026;SDS011;50714;49.208;5.364;2023-02-28T17:27:33;9.48;;;8.48;;
48026;SDS011;50714;49.208;5.364;2023-02-28T17:37:34;5.47;;;4.55;;
48026;SDS011;50714;49.208;5.364;2023-02-28T17:47:34;11.75;;;10.55;;
48026;SDS011;50714;49.208;5.364;2023-02-28T17:57:35;7.03;;;6.30;;
48026;SDS011;50714;49.208;5.364;2023-02-28T18:07:38;7.30;;;4.13;;
48026;SDS011;50714;49.208;5.364;2023-02-28T18:17:40;5.53;;;4.22;;
48026;SDS011;50714;49.208;5.364;2023-02-28T18:27:40;10.68;;;8.93;;
48026;SDS011;50714;49.208;5.364;2023-02-28T18:37:52;12.93;;;10.20;;
48026;SDS011;50714;49.208;5.364;2023-02-28T18:47:53;9.18;;;7.25;;
48026;SDS011;50714;49.208;5.364;2023-02-28T18:57:53;12.07;;;10.20;;
48026;SDS011;50714;49.208;5.364;2023-02-28T19:07:53;9.18;;;7.60;;
48026;SDS011;50714;49.208;5.364;2023-02-28T19:17:54;10.55;;;9.52;;
48026;SDS011;50714;49.208;5.364;2023-02-28T19:27:54;6.93;;;5.95;;
48026;SDS011;50714;49.208;5.364;2023-02-28T19:37:55;7.22;;;6.18;;
48026;SDS011;50714;49.208;5.364;2023-02-28T19:47:56;8.35;;;6.50;;
48026;SDS011;50714;49.208;5.364;2023-02-28T19:57:56;6.68;;;5.53;;
48026;SDS011;50714;49.208;5.364;2023-02-28T20:07:56;7.30;;;5.90;;
48026;SDS011;50714;49.208;5.364;2023-02-28T20:17:57;9.95;;;8.30;;
48026;SDS011;50714;49.208;5.364;2023-02-28T20:27:59;9.50;;;6.13;;
48026;SDS011;50714;49.208;5.364;2023-02-28T20:37:59;6.28;;;5.30;;
48026;SDS011;50714;49.208;5.364;2023-02-28T20:48:00;11.65;;;7.78;;
48026;SDS011;50714;49.208;5.364;2023-02-28T20:58:00;7.25;;;6.13;;
48026;SDS011;50714;49.208;5.364;2023-02-28T21:08:00;6.30;;;5.03;;
48026;SDS011;50714;49.208;5.364;2023-02-28T21:18:01;6.78;;;5.53;;
48026;SDS011;50714;49.208;5.364;2023-02-28T21:28:01;6.18;;;5.05;;
48026;SDS011;50714;49.208;5.364;2023-02-28T21:38:02;6.07;;;4.88;;
48026;SDS011;50714;49.208;5.364;2023-02-28T21:48:03;5.75;;;5.05;;
48026;SDS011;50714;49.208;5.364;2023-02-28T21:58:03;6.93;;;6.22;;
48026;SDS011;50714;49.208;5.364;2023-02-28T22:08:03;5.93;;;5.07;;
48026;SDS011;50714;49.208;5.364;2023-02-28T22:18:04;6.68;;;5.03;;
48026;SDS011;50714;49.208;5.364;2023-02-28T22:28:04;6.70;;;5.63;;
48026;SDS011;50714;49.208;5.364;2023-02-28T22:38:05;7.50;;;5.60;;
48026;SDS011;50714;49.208;5.364;2023-02-28T22:48:06;5.60;;;5.00;;
48026;SDS011;50714;49.208;5.364;2023-02-28T22:58:09;6.60;;;4.97;;
48026;SDS011;50714;49.208;5.364;2023-02-28T23:08:10;31.75;;;22.90;;
48026;SDS011;50714;49.208;5.364;2023-02-28T23:18:10;45.42;;;34.58;;
48026;SDS011;50714;49.208;5.364;2023-02-28T23:28:11;22.75;;;15.85;;
48026;SDS011;50714;49.208;5.364;2023-02-28T23:38:12;14.13;;;10.82;;
48026;SDS011;50714;49.208;5.364;2023-02-28T23:48:12;7.70;;;5.97;;
48026;SDS011;50714;49.208;5.364;2023-02-28T23:58:13;7.93;;;6.13;;
